sensor_id;sensor_type;location;lat;lon;timestamp;P1;durP1;ratioP1;P2;durP2;ratioP2
63653;SDS011;49809;47.418;19.080;2023-04-24T00:03:25;7.90;;;4.00;;
63653;SDS011;49809;47.418;19.080;2023-04-24T00:06:51;7.55;;;3.97;;
63653;SDS011;49809;47.418;19.080;2023-04-24T00:10:22;5.15;;;3.50;;
63653;SDS011;49809;47.418;19.080;2023-04-24T00:13:42;4.70;;;3.60;;
63653;SDS011;49809;47.418;19.080;2023-04-24T00:17:16;6.28;;;4.18;;
63653;SDS011;49809;47.418;19.080;2023-04-24T00:24:16;5.12;;;3.62;;
63653;SDS011;49809;47.418;19.080;2023-04-24T00:27:42;6.72;;;3.92;;
63653;SDS011;49809;47.418;19.080;2023-04-24T00:31:01;6.20;;;3.97;;
63653;SDS011;49809;47.418;19.080;2023-04-24T00:34:37;8.27;;;4.12;;
63653;SDS011;49809;47.418;19.080;2023-04-24T00:37:58;9.35;;;3.80;;
63653;SDS011;49809;47.418;19.080;2023-04-24T00:41:21;9.10;;;4.18;;
63653;SDS011;49809;47.418;19.080;2023-04-24T00:44:56;8.55;;;4.40;;
63653;SDS011;49809;47.418;19.080;2023-04-24T00:48:21;7.25;;;4.10;;
63653;SDS011;49809;47.418;19.080;2023-04-24T00:51:38;7.82;;;4.15;;
63653;SDS011;49809;47.418;19.080;2023-04-24T00:55:16;6.57;;;3.95;;
63653;SDS011;49809;47.418;19.080;2023-04-24T00:58:57;8.80;;;4.43;;
63653;SDS011;49809;47.418;19.080;2023-04-24T01:02:16;6.87;;;4.00;;
63653;SDS011;49809;47.418;19.080;2023-04-24T01:05:42;10.48;;;4.30;;
63653;SDS011;49809;47.418;19.080;2023-04-24T01:09:37;7.65;;;4.43;;
63653;SDS011;49809;47.418;19.080;2023-04-24T01:12:57;6.78;;;4.12;;
63653;SDS011;49809;47.418;19.080;2023-04-24T01:16:34;7.85;;;4.53;;
63653;SDS011;49809;47.418;19.080;2023-04-24T01:19:54;6.87;;;3.87;;
63653;SDS011;49809;47.418;19.080;2023-04-24T01:23:17;6.85;;;4.20;;
63653;SDS011;49809;47.418;19.080;2023-04-24T01:26:42;7.72;;;4.40;;
63653;SDS011;49809;47.418;19.080;2023-04-24T01:30:05;8.98;;;4.37;;
63653;SDS011;49809;47.418;19.080;2023-04-24T01:33:27;6.35;;;4.82;;
63653;SDS011;49809;47.418;19.080;2023-04-24T01:52:10;6.65;;;4.28;;
63653;SDS011;49809;47.418;19.080;2023-04-24T01:56:10;6.00;;;4.82;;
63653;SDS011;49809;47.418;19.080;2023-04-24T02:10:55;10.30;;;4.78;;
63653;SDS011;49809;47.418;19.080;2023-04-24T02:22:02;7.15;;;4.80;;
63653;SDS011;49809;47.418;19.080;2023-04-24T02:25:50;8.05;;;5.12;;
63653;SDS011;49809;47.418;19.080;2023-04-24T02:54:52;10.90;;;5.50;;
63653;SDS011;49809;47.418;19.080;2023-04-24T02:58:19;9.00;;;5.87;;
63653;SDS011;49809;47.418;19.080;2023-04-24T03:01:56;7.85;;;5.20;;
63653;SDS011;49809;47.418;19.080;2023-04-24T03:56:37;7.25;;;5.12;;
63653;SDS011;49809;47.418;19.080;2023-04-24T04:00:31;8.82;;;5.45;;
63653;SDS011;49809;47.418;19.080;2023-04-24T04:22:18;9.65;;;5.65;;
63653;SDS011;49809;47.418;19.080;2023-04-24T04:26:01;11.43;;;5.82;;
63653;SDS011;49809;47.418;19.080;2023-04-24T04:29:50;8.73;;;5.87;;
63653;SDS011;49809;47.418;19.080;2023-04-24T04:51:53;8.25;;;5.50;;
63653;SDS011;49809;47.418;19.080;2023-04-24T05:02:55;10.32;;;4.82;;
63653;SDS011;49809;47.418;19.080;2023-04-24T05:06:39;7.00;;;4.72;;
63653;SDS011;49809;47.418;19.080;2023-04-24T05:18:40;7.60;;;4.20;;
63653;SDS011;49809;47.418;19.080;2023-04-24T05:22:17;10.00;;;5.30;;
63653;SDS011;49809;47.418;19.080;2023-04-24T05:25:44;7.95;;;4.97;;
63653;SDS011;49809;47.418;19.080;2023-04-24T05:29:15;12.07;;;5.35;;
63653;SDS011;49809;47.418;19.080;2023-04-24T05:32:37;6.53;;;4.62;;
63653;SDS011;49809;47.418;19.080;2023-04-24T05:35:55;7.10;;;5.00;;
63653;SDS011;49809;47.418;19.080;2023-04-24T05:39:40;8.30;;;5.35;;
63653;SDS011;49809;47.418;19.080;2023-04-24T05:48:11;6.53;;;4.80;;
63653;SDS011;49809;47.418;19.080;2023-04-24T05:51:41;6.50;;;4.55;;
63653;SDS011;49809;47.418;19.080;2023-04-24T05:55:26;13.40;;;5.25;;
63653;SDS011;49809;47.418;19.080;2023-04-24T05:59:02;9.70;;;5.47;;
63653;SDS011;49809;47.418;19.080;2023-04-24T06:02:38;7.00;;;4.80;;
63653;SDS011;49809;47.418;19.080;2023-04-24T06:06:35;8.85;;;4.50;;
63653;SDS011;49809;47.418;19.080;2023-04-24T06:09:55;6.57;;;4.62;;
63653;SDS011;49809;47.418;19.080;2023-04-24T06:13:35;12.17;;;4.90;;
63653;SDS011;49809;47.418;19.080;2023-04-24T06:17:00;7.07;;;4.50;;
63653;SDS011;49809;47.418;19.080;2023-04-24T06:20:49;6.55;;;4.82;;
63653;SDS011;49809;47.418;19.080;2023-04-24T06:24:24;6.40;;;4.30;;
63653;SDS011;49809;47.418;19.080;2023-04-24T06:27:49;7.93;;;4.82;;
63653;SDS011;49809;47.418;19.080;2023-04-24T06:31:39;7.72;;;4.72;;
63653;SDS011;49809;47.418;19.080;2023-04-24T06:35:08;7.18;;;5.00;;
63653;SDS011;49809;47.418;19.080;2023-04-24T06:38:33;9.82;;;5.32;;
63653;SDS011;49809;47.418;19.080;2023-04-24T06:41:58;6.75;;;4.78;;
63653;SDS011;49809;47.418;19.080;2023-04-24T06:45:16;7.68;;;4.97;;
63653;SDS011;49809;47.418;19.080;2023-04-24T06:48:50;7.62;;;4.68;;
63653;SDS011;49809;47.418;19.080;2023-04-24T06:52:17;11.77;;;4.82;;
63653;SDS011;49809;47.418;19.080;2023-04-24T07:03:16;8.63;;;5.35;;
63653;SDS011;49809;47.418;19.080;2023-04-24T07:06:46;8.90;;;5.35;;
63653;SDS011;49809;47.418;19.080;2023-04-24T07:10:26;9.57;;;5.32;;
63653;SDS011;49809;47.418;19.080;2023-04-24T07:13:49;11.93;;;5.57;;
63653;SDS011;49809;47.418;19.080;2023-04-24T07:17:17;9.27;;;5.75;;
63653;SDS011;49809;47.418;19.080;2023-04-24T07:20:54;9.00;;;5.55;;
63653;SDS011;49809;47.418;19.080;2023-04-24T07:24:26;10.00;;;5.53;;
63653;SDS011;49809;47.418;19.080;2023-04-24T07:35:41;7.15;;;5.05;;
63653;SDS011;49809;47.418;19.080;2023-04-24T07:38:57;8.07;;;4.95;;
63653;SDS011;49809;47.418;19.080;2023-04-24T07:42:17;7.12;;;4.95;;
63653;SDS011;49809;47.418;19.080;2023-04-24T07:45:52;6.50;;;4.57;;
63653;SDS011;49809;47.418;19.080;2023-04-24T07:49:15;7.50;;;5.07;;
63653;SDS011;49809;47.418;19.080;2023-04-24T07:53:00;6.57;;;4.07;;
63653;SDS011;49809;47.418;19.080;2023-04-24T07:56:25;6.40;;;4.57;;
63653;SDS011;49809;47.418;19.080;2023-04-24T08:00:02;5.78;;;4.18;;
63653;SDS011;49809;47.418;19.080;2023-04-24T08:03:12;7.93;;;5.43;;
63653;SDS011;49809;47.418;19.080;2023-04-24T08:06:38;5.87;;;4.25;;
63653;SDS011;49809;47.418;19.080;2023-04-24T08:10:21;9.35;;;5.43;;
63653;SDS011;49809;47.418;19.080;2023-04-24T08:13:44;8.00;;;4.87;;
63653;SDS011;49809;47.418;19.080;2023-04-24T08:17:16;12.18;;;7.20;;
63653;SDS011;49809;47.418;19.080;2023-04-24T08:20:56;9.68;;;5.87;;
63653;SDS011;49809;47.418;19.080;2023-04-24T08:24:19;20.55;;;9.90;;
63653;SDS011;49809;47.418;19.080;2023-04-24T08:27:47;8.57;;;5.95;;
63653;SDS011;49809;47.418;19.080;2023-04-24T08:31:05;8.70;;;5.15;;
63653;SDS011;49809;47.418;19.080;2023-04-24T08:34:31;9.10;;;5.00;;
63653;SDS011;49809;47.418;19.080;2023-04-24T08:38:08;7.43;;;5.75;;
63653;SDS011;49809;47.418;19.080;2023-04-24T08:42:14;7.90;;;5.00;;
63653;SDS011;49809;47.418;19.080;2023-04-24T08:45:33;8.02;;;4.95;;
63653;SDS011;49809;47.418;19.080;2023-04-24T08:49:03;6.47;;;4.60;;
63653;SDS011;49809;47.418;19.080;2023-04-24T08:52:08;6.72;;;4.40;;
63653;SDS011;49809;47.418;19.080;2023-04-24T08:55:32;7.53;;;5.05;;
63653;SDS011;49809;47.418;19.080;2023-04-24T08:59:00;6.07;;;4.20;;
63653;SDS011;49809;47.418;19.080;2023-04-24T09:02:36;8.27;;;4.80;;
63653;SDS011;49809;47.418;19.080;2023-04-24T09:06:27;7.93;;;4.37;;
63653;SDS011;49809;47.418;19.080;2023-04-24T09:09:50;7.18;;;4.55;;
63653;SDS011;49809;47.418;19.080;2023-04-24T09:13:14;8.60;;;4.30;;
63653;SDS011;49809;47.418;19.080;2023-04-24T09:16:38;8.52;;;4.18;;
63653;SDS011;49809;47.418;19.080;2023-04-24T09:20:31;6.07;;;3.62;;
63653;SDS011;49809;47.418;19.080;2023-04-24T09:24:02;8.05;;;4.80;;
63653;SDS011;49809;47.418;19.080;2023-04-24T09:27:36;10.20;;;4.28;;
63653;SDS011;49809;47.418;19.080;2023-04-24T09:31:03;5.43;;;4.37;;
63653;SDS011;49809;47.418;19.080;2023-04-24T09:34:38;7.00;;;4.50;;
63653;SDS011;49809;47.418;19.080;2023-04-24T09:37:56;8.02;;;4.45;;
63653;SDS011;49809;47.418;19.080;2023-04-24T09:41:17;5.45;;;3.97;;
63653;SDS011;49809;47.418;19.080;2023-04-24T09:44:57;4.03;;;3.08;;
63653;SDS011;49809;47.418;19.080;2023-04-24T09:48:36;9.07;;;4.00;;
63653;SDS011;49809;47.418;19.080;2023-04-24T09:52:06;4.70;;;4.20;;
63653;SDS011;49809;47.418;19.080;2023-04-24T09:55:18;7.25;;;4.00;;
63653;SDS011;49809;47.418;19.080;2023-04-24T09:59:06;5.55;;;3.87;;
63653;SDS011;49809;47.418;19.080;2023-04-24T10:02:30;5.07;;;3.58;;
63653;SDS011;49809;47.418;19.080;2023-04-24T10:06:11;7.12;;;3.90;;
63653;SDS011;49809;47.418;19.080;2023-04-24T10:09:28;5.50;;;3.92;;
63653;SDS011;49809;47.418;19.080;2023-04-24T10:13:08;6.20;;;4.22;;
63653;SDS011;49809;47.418;19.080;2023-04-24T10:16:17;6.80;;;4.03;;
63653;SDS011;49809;47.418;19.080;2023-04-24T10:50:52;4.97;;;4.00;;
63653;SDS011;49809;47.418;19.080;2023-04-24T10:54:47;6.05;;;4.12;;
63653;SDS011;49809;47.418;19.080;2023-04-24T12:28:52;7.35;;;4.50;;
63653;SDS011;49809;47.418;19.080;2023-04-24T12:36:48;4.78;;;3.92;;
63653;SDS011;49809;47.418;19.080;2023-04-24T13:25:16;2.65;;;1.70;;
63653;SDS011;49809;47.418;19.080;2023-04-24T13:36:10;3.45;;;2.00;;
63653;SDS011;49809;47.418;19.080;2023-04-24T13:39:43;4.45;;;1.87;;
63653;SDS011;49809;47.418;19.080;2023-04-24T13:43:05;2.92;;;1.80;;
63653;SDS011;49809;47.418;19.080;2023-04-24T13:46:34;3.12;;;1.67;;
63653;SDS011;49809;47.418;19.080;2023-04-24T13:49:55;3.10;;;1.98;;
63653;SDS011;49809;47.418;19.080;2023-04-24T13:53:25;2.15;;;1.60;;
63653;SDS011;49809;47.418;19.080;2023-04-24T13:56:52;2.55;;;1.67;;
63653;SDS011;49809;47.418;19.080;2023-04-24T14:00:32;2.10;;;1.83;;
63653;SDS011;49809;47.418;19.080;2023-04-24T14:03:57;2.67;;;1.90;;
63653;SDS011;49809;47.418;19.080;2023-04-24T14:07:18;3.15;;;2.30;;
63653;SDS011;49809;47.418;19.080;2023-04-24T14:10:47;3.58;;;2.17;;
63653;SDS011;49809;47.418;19.080;2023-04-24T14:17:55;3.37;;;2.25;;
63653;SDS011;49809;47.418;19.080;2023-04-24T14:25:18;2.95;;;1.80;;
63653;SDS011;49809;47.418;19.080;2023-04-24T14:28:26;3.58;;;2.40;;
63653;SDS011;49809;47.418;19.080;2023-04-24T14:32:06;5.25;;;2.60;;
63653;SDS011;49809;47.418;19.080;2023-04-24T14:35:44;3.62;;;2.60;;
63653;SDS011;49809;47.418;19.080;2023-04-24T14:39:24;4.85;;;2.95;;
63653;SDS011;49809;47.418;19.080;2023-04-24T14:42:58;6.22;;;2.72;;
63653;SDS011;49809;47.418;19.080;2023-04-24T14:57:42;7.22;;;3.28;;
63653;SDS011;49809;47.418;19.080;2023-04-24T15:23:33;4.47;;;1.95;;
63653;SDS011;49809;47.418;19.080;2023-04-24T15:34:39;4.97;;;2.33;;
63653;SDS011;49809;47.418;19.080;2023-04-24T15:56:15;4.90;;;3.12;;
63653;SDS011;49809;47.418;19.080;2023-04-24T15:59:39;4.90;;;3.03;;
63653;SDS011;49809;47.418;19.080;2023-04-24T16:38:50;4.47;;;3.03;;
63653;SDS011;49809;47.418;19.080;2023-04-24T16:42:13;4.70;;;3.22;;
63653;SDS011;49809;47.418;19.080;2023-04-24T16:45:52;5.03;;;3.33;;
63653;SDS011;49809;47.418;19.080;2023-04-24T16:49:26;3.62;;;3.00;;
63653;SDS011;49809;47.418;19.080;2023-04-24T16:53:05;4.60;;;3.00;;
63653;SDS011;49809;47.418;19.080;2023-04-24T17:03:53;4.83;;;3.23;;
63653;SDS011;49809;47.418;19.080;2023-04-24T17:07:28;4.75;;;3.37;;
63653;SDS011;49809;47.418;19.080;2023-04-24T17:18:30;6.50;;;4.10;;
63653;SDS011;49809;47.418;19.080;2023-04-24T17:21:47;5.50;;;3.47;;
63653;SDS011;49809;47.418;19.080;2023-04-24T17:40:38;7.40;;;4.28;;
63653;SDS011;49809;47.418;19.080;2023-04-24T17:44:27;5.18;;;4.00;;
63653;SDS011;49809;47.418;19.080;2023-04-24T17:48:14;6.43;;;3.80;;
63653;SDS011;49809;47.418;19.080;2023-04-24T17:51:42;7.80;;;3.90;;
63653;SDS011;49809;47.418;19.080;2023-04-24T18:05:54;5.20;;;3.92;;
63653;SDS011;49809;47.418;19.080;2023-04-24T18:50:37;4.15;;;2.28;;
63653;SDS011;49809;47.418;19.080;2023-04-24T19:12:42;5.03;;;1.75;;
63653;SDS011;49809;47.418;19.080;2023-04-24T19:33:37;3.65;;;1.77;;
63653;SDS011;49809;47.418;19.080;2023-04-24T19:37:41;2.78;;;1.67;;
63653;SDS011;49809;47.418;19.080;2023-04-24T19:41:42;1.83;;;1.37;;
63653;SDS011;49809;47.418;19.080;2023-04-24T20:51:45;2.00;;;1.20;;
63653;SDS011;49809;47.418;19.080;2023-04-24T21:11:07;1.70;;;1.20;;
63653;SDS011;49809;47.418;19.080;2023-04-24T21:23:36;2.37;;;1.55;;
63653;SDS011;49809;47.418;19.080;2023-04-24T22:43:44;0.90;;;0.50;;
63653;SDS011;49809;47.418;19.080;2023-04-24T22:47:54;1.10;;;0.80;;
63653;SDS011;49809;47.418;19.080;2023-04-24T23:21:18;1.25;;;0.98;;
63653;SDS011;49809;47.418;19.080;2023-04-24T23:41:06;0.75;;;0.70;;
63653;SDS011;49809;47.418;19.080;2023-04-24T23:45:11;0.85;;;0.62;;
63653;SDS011;49809;47.418;19.080;2023-04-24T23:48:35;0.88;;;0.77;;
63653;SDS011;49809;47.418;19.080;2023-04-24T23:57:13;1.05;;;0.85;;
